Terminal Aerodrome Forecast
Issued by NWS Springfield, MO

Home | Current Version | Previous Version | Text Only | Print | Product List | Glossary On
Versions: 1 2 3 4 5 6 7 8 9 10 11 12 13 14 15
000
FTUS43 KSGF 220359 AAB
TAFSGF
TAF AMD
KSGF 220359Z 2204/2224 06009KT P6SM VCSH OVC040
     FM220700 08012KT P6SM OVC060
     FM221500 10012KT P6SM OVC080=

USA.gov is the U.S. government's official web portal to all federal, state and local government web resources and services.